sensor_id;sensor_type;location;lat;lon;timestamp;P1;durP1;ratioP1;P2;durP2;ratioP2
10088;SDS011;51898;49.864;8.550;2023-05-20T00:00:09;5.13;;;3.30;;
10088;SDS011;51898;49.864;8.550;2023-05-20T00:03:11;4.30;;;3.20;;
10088;SDS011;51898;49.864;8.550;2023-05-20T00:06:13;4.30;;;3.70;;
10088;SDS011;51898;49.864;8.550;2023-05-20T00:09:14;3.20;;;3.00;;
10088;SDS011;51898;49.864;8.550;2023-05-20T00:12:17;3.13;;;2.80;;
10088;SDS011;51898;49.864;8.550;2023-05-20T00:15:19;3.70;;;2.90;;
10088;SDS011;51898;49.864;8.550;2023-05-20T00:18:20;9.87;;;4.37;;
10088;SDS011;51898;49.864;8.550;2023-05-20T00:21:22;4.57;;;3.40;;
10088;SDS011;51898;49.864;8.550;2023-05-20T00:24:24;4.17;;;3.40;;
10088;SDS011;51898;49.864;8.550;2023-05-20T00:27:26;3.60;;;3.30;;
10088;SDS011;51898;49.864;8.550;2023-05-20T00:30:27;10.87;;;3.80;;
10088;SDS011;51898;49.864;8.550;2023-05-20T00:33:29;3.47;;;3.17;;
10088;SDS011;51898;49.864;8.550;2023-05-20T00:36:31;4.40;;;3.40;;
10088;SDS011;51898;49.864;8.550;2023-05-20T00:39:32;4.90;;;3.70;;
10088;SDS011;51898;49.864;8.550;2023-05-20T00:42:34;4.60;;;3.50;;
10088;SDS011;51898;49.864;8.550;2023-05-20T00:45:36;4.10;;;3.70;;
10088;SDS011;51898;49.864;8.550;2023-05-20T00:48:39;3.37;;;3.13;;
10088;SDS011;51898;49.864;8.550;2023-05-20T00:51:42;4.73;;;4.20;;
10088;SDS011;51898;49.864;8.550;2023-05-20T00:54:44;3.53;;;3.23;;
10088;SDS011;51898;49.864;8.550;2023-05-20T00:57:50;3.83;;;3.50;;
10088;SDS011;51898;49.864;8.550;2023-05-20T01:00:52;3.90;;;3.60;;
10088;SDS011;51898;49.864;8.550;2023-05-20T01:03:55;4.30;;;3.80;;
10088;SDS011;51898;49.864;8.550;2023-05-20T01:06:57;5.30;;;3.33;;
10088;SDS011;51898;49.864;8.550;2023-05-20T01:10:00;3.97;;;3.60;;
10088;SDS011;51898;49.864;8.550;2023-05-20T01:13:03;3.30;;;2.97;;
10088;SDS011;51898;49.864;8.550;2023-05-20T01:16:09;3.73;;;3.40;;
10088;SDS011;51898;49.864;8.550;2023-05-20T01:19:17;3.50;;;3.00;;
10088;SDS011;51898;49.864;8.550;2023-05-20T01:22:27;3.70;;;3.03;;
10088;SDS011;51898;49.864;8.550;2023-05-20T01:25:29;4.40;;;3.93;;
10088;SDS011;51898;49.864;8.550;2023-05-20T01:28:33;5.53;;;3.40;;
10088;SDS011;51898;49.864;8.550;2023-05-20T01:31:38;3.80;;;3.37;;
10088;SDS011;51898;49.864;8.550;2023-05-20T01:34:40;4.20;;;3.40;;
10088;SDS011;51898;49.864;8.550;2023-05-20T01:37:43;4.27;;;3.07;;
10088;SDS011;51898;49.864;8.550;2023-05-20T01:40:46;5.00;;;3.40;;
10088;SDS011;51898;49.864;8.550;2023-05-20T01:43:49;4.33;;;3.70;;
10088;SDS011;51898;49.864;8.550;2023-05-20T01:46:50;4.90;;;3.37;;
10088;SDS011;51898;49.864;8.550;2023-05-20T01:49:52;5.50;;;4.00;;
10088;SDS011;51898;49.864;8.550;2023-05-20T01:52:54;3.53;;;3.23;;
10088;SDS011;51898;49.864;8.550;2023-05-20T01:55:56;6.37;;;3.67;;
10088;SDS011;51898;49.864;8.550;2023-05-20T01:58:57;4.57;;;3.23;;
10088;SDS011;51898;49.864;8.550;2023-05-20T02:01:59;4.33;;;3.47;;
10088;SDS011;51898;49.864;8.550;2023-05-20T02:05:01;3.97;;;3.57;;
10088;SDS011;51898;49.864;8.550;2023-05-20T02:08:03;5.57;;;3.90;;
10088;SDS011;51898;49.864;8.550;2023-05-20T02:11:04;5.27;;;3.63;;
10088;SDS011;51898;49.864;8.550;2023-05-20T02:14:06;4.87;;;3.50;;
10088;SDS011;51898;49.864;8.550;2023-05-20T02:17:08;3.70;;;3.33;;
10088;SDS011;51898;49.864;8.550;2023-05-20T02:20:10;4.60;;;4.20;;
10088;SDS011;51898;49.864;8.550;2023-05-20T02:23:12;5.07;;;3.67;;
10088;SDS011;51898;49.864;8.550;2023-05-20T02:26:13;5.50;;;4.27;;
10088;SDS011;51898;49.864;8.550;2023-05-20T02:29:15;4.80;;;3.97;;
10088;SDS011;51898;49.864;8.550;2023-05-20T02:32:17;6.43;;;4.50;;
10088;SDS011;51898;49.864;8.550;2023-05-20T02:35:20;5.00;;;3.63;;
10088;SDS011;51898;49.864;8.550;2023-05-20T02:38:22;4.17;;;3.70;;
10088;SDS011;51898;49.864;8.550;2023-05-20T02:41:24;6.10;;;4.03;;
10088;SDS011;51898;49.864;8.550;2023-05-20T02:44:26;9.87;;;3.70;;
10088;SDS011;51898;49.864;8.550;2023-05-20T02:47:27;4.97;;;3.83;;
10088;SDS011;51898;49.864;8.550;2023-05-20T02:50:29;5.00;;;3.80;;
10088;SDS011;51898;49.864;8.550;2023-05-20T02:53:31;3.90;;;3.50;;
10088;SDS011;51898;49.864;8.550;2023-05-20T02:56:33;5.00;;;4.20;;
10088;SDS011;51898;49.864;8.550;2023-05-20T02:59:35;4.70;;;3.83;;
10088;SDS011;51898;49.864;8.550;2023-05-20T03:02:36;5.90;;;4.53;;
10088;SDS011;51898;49.864;8.550;2023-05-20T03:05:38;6.60;;;3.90;;
10088;SDS011;51898;49.864;8.550;2023-05-20T03:08:40;7.50;;;4.57;;
10088;SDS011;51898;49.864;8.550;2023-05-20T03:11:42;4.00;;;3.60;;
10088;SDS011;51898;49.864;8.550;2023-05-20T03:14:44;6.47;;;4.00;;
10088;SDS011;51898;49.864;8.550;2023-05-20T03:17:46;5.40;;;4.80;;
10088;SDS011;51898;49.864;8.550;2023-05-20T03:20:47;5.00;;;4.37;;
10088;SDS011;51898;49.864;8.550;2023-05-20T03:23:49;6.67;;;4.00;;
10088;SDS011;51898;49.864;8.550;2023-05-20T03:26:51;4.73;;;4.10;;
10088;SDS011;51898;49.864;8.550;2023-05-20T03:29:53;4.50;;;3.80;;
10088;SDS011;51898;49.864;8.550;2023-05-20T03:32:55;7.00;;;4.30;;
10088;SDS011;51898;49.864;8.550;2023-05-20T03:35:59;4.50;;;4.10;;
10088;SDS011;51898;49.864;8.550;2023-05-20T03:39:01;5.43;;;4.60;;
10088;SDS011;51898;49.864;8.550;2023-05-20T03:42:04;6.87;;;4.63;;
10088;SDS011;51898;49.864;8.550;2023-05-20T03:45:06;5.07;;;4.57;;
10088;SDS011;51898;49.864;8.550;2023-05-20T03:48:08;7.80;;;4.63;;
10088;SDS011;51898;49.864;8.550;2023-05-20T03:51:09;5.93;;;4.33;;
10088;SDS011;51898;49.864;8.550;2023-05-20T03:54:11;4.60;;;3.97;;
10088;SDS011;51898;49.864;8.550;2023-05-20T03:57:13;6.10;;;4.37;;
10088;SDS011;51898;49.864;8.550;2023-05-20T04:00:14;4.67;;;4.27;;
10088;SDS011;51898;49.864;8.550;2023-05-20T04:03:17;5.37;;;4.20;;
10088;SDS011;51898;49.864;8.550;2023-05-20T04:06:19;5.50;;;4.90;;
10088;SDS011;51898;49.864;8.550;2023-05-20T04:09:22;4.40;;;4.00;;
10088;SDS011;51898;49.864;8.550;2023-05-20T04:12:27;6.47;;;4.77;;
10088;SDS011;51898;49.864;8.550;2023-05-20T04:15:30;6.50;;;4.97;;
10088;SDS011;51898;49.864;8.550;2023-05-20T04:18:37;5.87;;;5.00;;
10088;SDS011;51898;49.864;8.550;2023-05-20T04:21:41;6.73;;;4.40;;
10088;SDS011;51898;49.864;8.550;2023-05-20T04:24:43;4.77;;;4.37;;
10088;SDS011;51898;49.864;8.550;2023-05-20T04:27:46;4.50;;;4.00;;
10088;SDS011;51898;49.864;8.550;2023-05-20T04:30:48;5.00;;;4.60;;
10088;SDS011;51898;49.864;8.550;2023-05-20T04:33:58;4.53;;;4.10;;
10088;SDS011;51898;49.864;8.550;2023-05-20T04:37:00;6.73;;;4.87;;
10088;SDS011;51898;49.864;8.550;2023-05-20T04:40:03;5.30;;;4.80;;
10088;SDS011;51898;49.864;8.550;2023-05-20T04:43:06;6.23;;;5.27;;
10088;SDS011;51898;49.864;8.550;2023-05-20T04:46:08;6.50;;;4.90;;
10088;SDS011;51898;49.864;8.550;2023-05-20T04:49:10;6.20;;;4.90;;
10088;SDS011;51898;49.864;8.550;2023-05-20T04:52:12;4.90;;;4.40;;
10088;SDS011;51898;49.864;8.550;2023-05-20T04:55:13;6.30;;;5.03;;
10088;SDS011;51898;49.864;8.550;2023-05-20T04:58:16;6.07;;;4.63;;
10088;SDS011;51898;49.864;8.550;2023-05-20T05:01:17;5.07;;;4.37;;
10088;SDS011;51898;49.864;8.550;2023-05-20T05:04:19;6.30;;;5.00;;
10088;SDS011;51898;49.864;8.550;2023-05-20T05:07:21;5.73;;;5.13;;
10088;SDS011;51898;49.864;8.550;2023-05-20T05:10:23;6.07;;;4.60;;
10088;SDS011;51898;49.864;8.550;2023-05-20T05:13:25;5.90;;;5.00;;
10088;SDS011;51898;49.864;8.550;2023-05-20T05:16:26;6.03;;;4.70;;
10088;SDS011;51898;49.864;8.550;2023-05-20T05:19:28;4.83;;;4.33;;
10088;SDS011;51898;49.864;8.550;2023-05-20T05:22:30;9.57;;;4.90;;
10088;SDS011;51898;49.864;8.550;2023-05-20T05:25:32;5.40;;;4.90;;
10088;SDS011;51898;49.864;8.550;2023-05-20T05:28:34;6.73;;;4.57;;
10088;SDS011;51898;49.864;8.550;2023-05-20T05:31:35;5.50;;;5.00;;
10088;SDS011;51898;49.864;8.550;2023-05-20T05:34:37;5.00;;;4.50;;
10088;SDS011;51898;49.864;8.550;2023-05-20T05:37:39;8.70;;;5.27;;
10088;SDS011;51898;49.864;8.550;2023-05-20T05:40:41;7.27;;;5.20;;
10088;SDS011;51898;49.864;8.550;2023-05-20T05:43:42;11.63;;;7.30;;
10088;SDS011;51898;49.864;8.550;2023-05-20T05:46:44;10.77;;;5.20;;
10088;SDS011;51898;49.864;8.550;2023-05-20T05:49:46;6.53;;;5.30;;
10088;SDS011;51898;49.864;8.550;2023-05-20T05:52:48;7.10;;;6.40;;
10088;SDS011;51898;49.864;8.550;2023-05-20T05:55:49;12.10;;;8.70;;
10088;SDS011;51898;49.864;8.550;2023-05-20T05:58:51;7.27;;;5.13;;
10088;SDS011;51898;49.864;8.550;2023-05-20T06:01:53;7.00;;;5.07;;
10088;SDS011;51898;49.864;8.550;2023-05-20T06:04:54;6.63;;;5.93;;
10088;SDS011;51898;49.864;8.550;2023-05-20T06:07:56;6.20;;;5.40;;
10088;SDS011;51898;49.864;8.550;2023-05-20T06:10:58;7.73;;;6.10;;
10088;SDS011;51898;49.864;8.550;2023-05-20T06:14:00;6.87;;;5.40;;
10088;SDS011;51898;49.864;8.550;2023-05-20T06:17:03;8.97;;;7.90;;
10088;SDS011;51898;49.864;8.550;2023-05-20T06:20:06;5.90;;;5.40;;
10088;SDS011;51898;49.864;8.550;2023-05-20T06:23:08;6.10;;;5.50;;
10088;SDS011;51898;49.864;8.550;2023-05-20T06:26:10;8.13;;;7.00;;
10088;SDS011;51898;49.864;8.550;2023-05-20T06:29:11;6.20;;;5.60;;
10088;SDS011;51898;49.864;8.550;2023-05-20T06:32:13;8.53;;;5.50;;
10088;SDS011;51898;49.864;8.550;2023-05-20T06:35:15;7.23;;;5.80;;
10088;SDS011;51898;49.864;8.550;2023-05-20T06:38:17;5.90;;;5.20;;
10088;SDS011;51898;49.864;8.550;2023-05-20T06:41:19;7.13;;;5.70;;
10088;SDS011;51898;49.864;8.550;2023-05-20T06:44:22;6.37;;;5.77;;
10088;SDS011;51898;49.864;8.550;2023-05-20T06:47:24;8.30;;;4.73;;
10088;SDS011;51898;49.864;8.550;2023-05-20T06:50:26;6.00;;;5.40;;
10088;SDS011;51898;49.864;8.550;2023-05-20T06:53:28;8.87;;;6.53;;
10088;SDS011;51898;49.864;8.550;2023-05-20T06:56:30;7.33;;;5.60;;
10088;SDS011;51898;49.864;8.550;2023-05-20T06:59:32;5.77;;;5.20;;
10088;SDS011;51898;49.864;8.550;2023-05-20T07:02:33;7.67;;;5.80;;
10088;SDS011;51898;49.864;8.550;2023-05-20T07:05:35;7.80;;;6.00;;
10088;SDS011;51898;49.864;8.550;2023-05-20T07:08:37;6.20;;;5.60;;
10088;SDS011;51898;49.864;8.550;2023-05-20T07:11:38;9.63;;;6.17;;
10088;SDS011;51898;49.864;8.550;2023-05-20T07:14:41;6.10;;;5.50;;
10088;SDS011;51898;49.864;8.550;2023-05-20T07:17:42;7.30;;;6.40;;
10088;SDS011;51898;49.864;8.550;2023-05-20T07:20:44;7.00;;;5.67;;
10088;SDS011;51898;49.864;8.550;2023-05-20T07:23:46;7.50;;;6.70;;
10088;SDS011;51898;49.864;8.550;2023-05-20T07:26:48;22.43;;;7.53;;
10088;SDS011;51898;49.864;8.550;2023-05-20T07:29:50;8.80;;;6.37;;
10088;SDS011;51898;49.864;8.550;2023-05-20T07:32:51;8.30;;;6.30;;
10088;SDS011;51898;49.864;8.550;2023-05-20T07:35:53;8.97;;;6.40;;
10088;SDS011;51898;49.864;8.550;2023-05-20T07:38:55;6.77;;;6.17;;
10088;SDS011;51898;49.864;8.550;2023-05-20T07:42:05;9.27;;;6.80;;
10088;SDS011;51898;49.864;8.550;2023-05-20T07:45:07;8.67;;;6.50;;
10088;SDS011;51898;49.864;8.550;2023-05-20T07:48:09;7.90;;;7.10;;
10088;SDS011;51898;49.864;8.550;2023-05-20T07:51:11;8.10;;;6.87;;
10088;SDS011;51898;49.864;8.550;2023-05-20T07:54:13;7.83;;;6.33;;
10088;SDS011;51898;49.864;8.550;2023-05-20T07:57:15;7.60;;;6.73;;
10088;SDS011;51898;49.864;8.550;2023-05-20T08:00:17;8.27;;;7.17;;
10088;SDS011;51898;49.864;8.550;2023-05-20T08:03:19;7.27;;;6.50;;
10088;SDS011;51898;49.864;8.550;2023-05-20T08:06:22;7.83;;;6.87;;
10088;SDS011;51898;49.864;8.550;2023-05-20T08:09:30;7.53;;;6.83;;
10088;SDS011;51898;49.864;8.550;2023-05-20T08:12:32;9.53;;;7.17;;
10088;SDS011;51898;49.864;8.550;2023-05-20T08:15:34;8.00;;;7.10;;
10088;SDS011;51898;49.864;8.550;2023-05-20T08:18:37;10.87;;;7.70;;
10088;SDS011;51898;49.864;8.550;2023-05-20T08:21:39;9.03;;;7.47;;
10088;SDS011;51898;49.864;8.550;2023-05-20T08:24:40;7.80;;;7.00;;
10088;SDS011;51898;49.864;8.550;2023-05-20T08:27:42;10.23;;;6.93;;
10088;SDS011;51898;49.864;8.550;2023-05-20T08:30:44;9.50;;;7.43;;
10088;SDS011;51898;49.864;8.550;2023-05-20T08:33:48;8.43;;;7.27;;
10088;SDS011;51898;49.864;8.550;2023-05-20T08:36:50;8.23;;;7.30;;
10088;SDS011;51898;49.864;8.550;2023-05-20T08:39:52;7.90;;;7.10;;
10088;SDS011;51898;49.864;8.550;2023-05-20T08:42:54;8.03;;;7.20;;
10088;SDS011;51898;49.864;8.550;2023-05-20T08:45:57;11.00;;;7.50;;
10088;SDS011;51898;49.864;8.550;2023-05-20T08:48:59;8.10;;;7.10;;
10088;SDS011;51898;49.864;8.550;2023-05-20T08:52:01;8.40;;;7.60;;
10088;SDS011;51898;49.864;8.550;2023-05-20T08:55:04;7.40;;;6.70;;
10088;SDS011;51898;49.864;8.550;2023-05-20T08:58:09;8.77;;;7.37;;
10088;SDS011;51898;49.864;8.550;2023-05-20T09:01:11;9.10;;;7.40;;
10088;SDS011;51898;49.864;8.550;2023-05-20T09:04:13;10.30;;;6.70;;
10088;SDS011;51898;49.864;8.550;2023-05-20T09:07:24;7.33;;;6.63;;
10088;SDS011;51898;49.864;8.550;2023-05-20T09:10:27;7.90;;;6.03;;
10088;SDS011;51898;49.864;8.550;2023-05-20T09:13:29;8.13;;;7.00;;
10088;SDS011;51898;49.864;8.550;2023-05-20T09:16:32;8.10;;;7.30;;
10088;SDS011;51898;49.864;8.550;2023-05-20T09:19:35;7.97;;;7.27;;
10088;SDS011;51898;49.864;8.550;2023-05-20T09:22:37;10.07;;;6.93;;
10088;SDS011;51898;49.864;8.550;2023-05-20T09:25:39;7.83;;;7.13;;
10088;SDS011;51898;49.864;8.550;2023-05-20T09:28:41;8.83;;;8.03;;
10088;SDS011;51898;49.864;8.550;2023-05-20T09:31:43;9.40;;;7.70;;
10088;SDS011;51898;49.864;8.550;2023-05-20T09:34:45;8.00;;;7.10;;
10088;SDS011;51898;49.864;8.550;2023-05-20T09:37:47;8.50;;;7.67;;
10088;SDS011;51898;49.864;8.550;2023-05-20T09:40:52;8.67;;;7.77;;
10088;SDS011;51898;49.864;8.550;2023-05-20T09:43:55;9.50;;;8.00;;
10088;SDS011;51898;49.864;8.550;2023-05-20T09:46:57;9.00;;;8.10;;
10088;SDS011;51898;49.864;8.550;2023-05-20T09:50:01;9.47;;;7.87;;
10088;SDS011;51898;49.864;8.550;2023-05-20T09:53:04;9.73;;;7.97;;
10088;SDS011;51898;49.864;8.550;2023-05-20T09:56:06;9.23;;;8.30;;
10088;SDS011;51898;49.864;8.550;2023-05-20T09:59:08;9.23;;;8.33;;
10088;SDS011;51898;49.864;8.550;2023-05-20T10:02:11;10.97;;;8.10;;
10088;SDS011;51898;49.864;8.550;2023-05-20T10:05:23;7.97;;;7.27;;
10088;SDS011;51898;49.864;8.550;2023-05-20T10:08:41;8.90;;;8.03;;
10088;SDS011;51898;49.864;8.550;2023-05-20T10:12:11;9.00;;;8.20;;
10088;SDS011;51898;49.864;8.550;2023-05-20T10:15:42;9.70;;;8.03;;
10088;SDS011;51898;49.864;8.550;2023-05-20T10:19:19;9.67;;;8.00;;
10088;SDS011;51898;49.864;8.550;2023-05-20T10:22:31;8.30;;;7.37;;
10088;SDS011;51898;49.864;8.550;2023-05-20T10:25:33;13.03;;;8.50;;
10088;SDS011;51898;49.864;8.550;2023-05-20T10:28:36;9.63;;;8.53;;
10088;SDS011;51898;49.864;8.550;2023-05-20T10:31:44;10.30;;;8.17;;
10088;SDS011;51898;49.864;8.550;2023-05-20T10:34:51;9.97;;;8.70;;
10088;SDS011;51898;49.864;8.550;2023-05-20T10:38:08;8.80;;;7.90;;
10088;SDS011;51898;49.864;8.550;2023-05-20T10:41:11;14.33;;;8.63;;
10088;SDS011;51898;49.864;8.550;2023-05-20T10:44:13;9.60;;;8.60;;
10088;SDS011;51898;49.864;8.550;2023-05-20T10:47:14;8.67;;;7.77;;
10088;SDS011;51898;49.864;8.550;2023-05-20T10:50:26;9.57;;;8.10;;
10088;SDS011;51898;49.864;8.550;2023-05-20T10:53:36;9.07;;;8.20;;
10088;SDS011;51898;49.864;8.550;2023-05-20T10:56:49;9.33;;;8.20;;
10088;SDS011;51898;49.864;8.550;2023-05-20T10:59:54;9.10;;;8.20;;
10088;SDS011;51898;49.864;8.550;2023-05-20T11:02:57;9.47;;;8.43;;
10088;SDS011;51898;49.864;8.550;2023-05-20T11:05:59;8.60;;;7.80;;
10088;SDS011;51898;49.864;8.550;2023-05-20T11:09:05;9.13;;;8.33;;
10088;SDS011;51898;49.864;8.550;2023-05-20T11:12:07;10.03;;;8.77;;
10088;SDS011;51898;49.864;8.550;2023-05-20T11:15:10;9.70;;;8.40;;
10088;SDS011;51898;49.864;8.550;2023-05-20T11:18:13;9.80;;;8.90;;
10088;SDS011;51898;49.864;8.550;2023-05-20T11:21:18;10.43;;;8.43;;
10088;SDS011;51898;49.864;8.550;2023-05-20T11:24:26;9.20;;;8.40;;
10088;SDS011;51898;49.864;8.550;2023-05-20T11:27:28;9.00;;;8.20;;
10088;SDS011;51898;49.864;8.550;2023-05-20T11:30:30;9.23;;;8.40;;
10088;SDS011;51898;49.864;8.550;2023-05-20T11:33:32;8.93;;;8.07;;
10088;SDS011;51898;49.864;8.550;2023-05-20T11:36:41;9.07;;;8.10;;
10088;SDS011;51898;49.864;8.550;2023-05-20T11:39:43;10.23;;;8.63;;
10088;SDS011;51898;49.864;8.550;2023-05-20T11:42:46;9.77;;;8.87;;
10088;SDS011;51898;49.864;8.550;2023-05-20T11:45:54;10.10;;;9.20;;
10088;SDS011;51898;49.864;8.550;2023-05-20T11:48:59;10.80;;;9.80;;
10088;SDS011;51898;49.864;8.550;2023-05-20T11:52:02;10.73;;;9.40;;
10088;SDS011;51898;49.864;8.550;2023-05-20T11:55:04;10.90;;;9.70;;
10088;SDS011;51898;49.864;8.550;2023-05-20T11:58:11;13.50;;;9.37;;
10088;SDS011;51898;49.864;8.550;2023-05-20T12:01:16;10.63;;;9.70;;
10088;SDS011;51898;49.864;8.550;2023-05-20T12:04:23;10.03;;;9.03;;
10088;SDS011;51898;49.864;8.550;2023-05-20T12:07:25;11.10;;;10.00;;
10088;SDS011;51898;49.864;8.550;2023-05-20T12:10:26;10.53;;;9.53;;
10088;SDS011;51898;49.864;8.550;2023-05-20T12:13:28;17.30;;;10.43;;
10088;SDS011;51898;49.864;8.550;2023-05-20T12:16:30;14.23;;;8.80;;
10088;SDS011;51898;49.864;8.550;2023-05-20T12:19:33;10.20;;;9.20;;
10088;SDS011;51898;49.864;8.550;2023-05-20T12:22:37;10.07;;;9.17;;
10088;SDS011;51898;49.864;8.550;2023-05-20T12:25:38;11.40;;;10.20;;
10088;SDS011;51898;49.864;8.550;2023-05-20T12:28:40;10.50;;;9.50;;
10088;SDS011;51898;49.864;8.550;2023-05-20T12:31:42;11.10;;;9.67;;
10088;SDS011;51898;49.864;8.550;2023-05-20T12:34:43;10.03;;;9.13;;
10088;SDS011;51898;49.864;8.550;2023-05-20T12:37:45;11.20;;;10.10;;
10088;SDS011;51898;49.864;8.550;2023-05-20T12:40:47;10.93;;;8.70;;
10088;SDS011;51898;49.864;8.550;2023-05-20T12:43:48;10.97;;;9.40;;
10088;SDS011;51898;49.864;8.550;2023-05-20T12:46:50;10.40;;;9.33;;
10088;SDS011;51898;49.864;8.550;2023-05-20T12:49:54;10.30;;;9.30;;
10088;SDS011;51898;49.864;8.550;2023-05-20T12:52:56;13.67;;;9.90;;
10088;SDS011;51898;49.864;8.550;2023-05-20T12:55:57;10.30;;;9.20;;
10088;SDS011;51898;49.864;8.550;2023-05-20T12:58:59;10.30;;;9.30;;
10088;SDS011;51898;49.864;8.550;2023-05-20T13:02:02;11.83;;;10.07;;
10088;SDS011;51898;49.864;8.550;2023-05-20T13:05:04;10.90;;;9.80;;
10088;SDS011;51898;49.864;8.550;2023-05-20T13:08:06;10.97;;;9.90;;
10088;SDS011;51898;49.864;8.550;2023-05-20T13:11:10;11.07;;;9.97;;
10088;SDS011;51898;49.864;8.550;2023-05-20T13:14:12;11.03;;;9.93;;
10088;SDS011;51898;49.864;8.550;2023-05-20T13:17:17;10.73;;;9.63;;
10088;SDS011;51898;49.864;8.550;2023-05-20T13:20:19;10.90;;;9.80;;
10088;SDS011;51898;49.864;8.550;2023-05-20T13:23:20;11.07;;;10.00;;
10088;SDS011;51898;49.864;8.550;2023-05-20T13:26:22;10.87;;;9.80;;
10088;SDS011;51898;49.864;8.550;2023-05-20T13:29:24;11.83;;;10.30;;
10088;SDS011;51898;49.864;8.550;2023-05-20T13:32:25;11.50;;;10.40;;
10088;SDS011;51898;49.864;8.550;2023-05-20T13:35:27;11.53;;;10.27;;
10088;SDS011;51898;49.864;8.550;2023-05-20T13:38:29;10.20;;;9.20;;
10088;SDS011;51898;49.864;8.550;2023-05-20T13:41:31;11.40;;;10.20;;
10088;SDS011;51898;49.864;8.550;2023-05-20T13:44:33;11.87;;;10.67;;
10088;SDS011;51898;49.864;8.550;2023-05-20T13:47:34;11.73;;;9.90;;
10088;SDS011;51898;49.864;8.550;2023-05-20T13:50:36;16.30;;;10.57;;
10088;SDS011;51898;49.864;8.550;2023-05-20T13:53:38;11.80;;;10.60;;
10088;SDS011;51898;49.864;8.550;2023-05-20T13:56:40;12.63;;;11.53;;
10088;SDS011;51898;49.864;8.550;2023-05-20T13:59:42;12.07;;;10.73;;
10088;SDS011;51898;49.864;8.550;2023-05-20T14:02:44;12.90;;;11.60;;
10088;SDS011;51898;49.864;8.550;2023-05-20T14:05:46;12.33;;;11.03;;
10088;SDS011;51898;49.864;8.550;2023-05-20T14:08:48;10.57;;;9.60;;
10088;SDS011;51898;49.864;8.550;2023-05-20T14:11:50;12.40;;;11.30;;
10088;SDS011;51898;49.864;8.550;2023-05-20T14:14:51;11.73;;;10.63;;
10088;SDS011;51898;49.864;8.550;2023-05-20T14:17:53;19.03;;;11.77;;
10088;SDS011;51898;49.864;8.550;2023-05-20T14:20:55;12.30;;;11.20;;
10088;SDS011;51898;49.864;8.550;2023-05-20T14:23:57;12.27;;;11.17;;
10088;SDS011;51898;49.864;8.550;2023-05-20T14:26:59;11.97;;;10.77;;
10088;SDS011;51898;49.864;8.550;2023-05-20T14:30:01;12.73;;;11.43;;
10088;SDS011;51898;49.864;8.550;2023-05-20T14:33:02;13.30;;;12.00;;
10088;SDS011;51898;49.864;8.550;2023-05-20T14:36:04;13.00;;;11.70;;
10088;SDS011;51898;49.864;8.550;2023-05-20T14:39:06;12.37;;;11.13;;
10088;SDS011;51898;49.864;8.550;2023-05-20T14:42:08;14.60;;;11.97;;
10088;SDS011;51898;49.864;8.550;2023-05-20T14:45:09;12.50;;;11.30;;
10088;SDS011;51898;49.864;8.550;2023-05-20T14:48:11;14.37;;;11.37;;
10088;SDS011;51898;49.864;8.550;2023-05-20T14:51:13;13.03;;;11.40;;
10088;SDS011;51898;49.864;8.550;2023-05-20T14:54:15;13.33;;;11.93;;
10088;SDS011;51898;49.864;8.550;2023-05-20T14:57:19;13.03;;;10.90;;
10088;SDS011;51898;49.864;8.550;2023-05-20T15:00:20;12.07;;;10.87;;
10088;SDS011;51898;49.864;8.550;2023-05-20T15:03:22;13.17;;;11.87;;
10088;SDS011;51898;49.864;8.550;2023-05-20T15:06:24;13.40;;;12.10;;
10088;SDS011;51898;49.864;8.550;2023-05-20T15:09:26;12.60;;;11.40;;
10088;SDS011;51898;49.864;8.550;2023-05-20T15:12:28;11.97;;;10.83;;
10088;SDS011;51898;49.864;8.550;2023-05-20T15:15:30;12.73;;;11.20;;
10088;SDS011;51898;49.864;8.550;2023-05-20T15:18:33;11.83;;;10.63;;
10088;SDS011;51898;49.864;8.550;2023-05-20T15:21:38;12.33;;;11.03;;
10088;SDS011;51898;49.864;8.550;2023-05-20T15:24:40;12.00;;;10.80;;
10088;SDS011;51898;49.864;8.550;2023-05-20T15:27:41;12.67;;;11.47;;
10088;SDS011;51898;49.864;8.550;2023-05-20T15:30:50;13.00;;;11.67;;
10088;SDS011;51898;49.864;8.550;2023-05-20T15:33:54;14.30;;;12.57;;
10088;SDS011;51898;49.864;8.550;2023-05-20T15:36:56;13.30;;;12.00;;
10088;SDS011;51898;49.864;8.550;2023-05-20T15:39:58;11.97;;;10.77;;
10088;SDS011;51898;49.864;8.550;2023-05-20T15:42:59;13.43;;;11.93;;
10088;SDS011;51898;49.864;8.550;2023-05-20T15:46:01;11.90;;;10.73;;
10088;SDS011;51898;49.864;8.550;2023-05-20T15:49:03;12.50;;;11.40;;
10088;SDS011;51898;49.864;8.550;2023-05-20T15:52:08;13.23;;;11.93;;
10088;SDS011;51898;49.864;8.550;2023-05-20T15:55:09;13.87;;;12.47;;
10088;SDS011;51898;49.864;8.550;2023-05-20T15:58:11;15.30;;;12.47;;
10088;SDS011;51898;49.864;8.550;2023-05-20T16:01:13;12.47;;;11.13;;
10088;SDS011;51898;49.864;8.550;2023-05-20T16:04:15;11.93;;;10.77;;
10088;SDS011;51898;49.864;8.550;2023-05-20T16:07:17;12.60;;;11.30;;
10088;SDS011;51898;49.864;8.550;2023-05-20T16:10:19;14.47;;;12.97;;
10088;SDS011;51898;49.864;8.550;2023-05-20T16:13:21;13.27;;;11.30;;
10088;SDS011;51898;49.864;8.550;2023-05-20T16:16:23;12.90;;;11.53;;
10088;SDS011;51898;49.864;8.550;2023-05-20T16:19:26;12.80;;;11.50;;
10088;SDS011;51898;49.864;8.550;2023-05-20T16:22:28;12.13;;;10.93;;
10088;SDS011;51898;49.864;8.550;2023-05-20T16:25:29;12.23;;;11.03;;
10088;SDS011;51898;49.864;8.550;2023-05-20T16:28:31;13.30;;;11.90;;
10088;SDS011;51898;49.864;8.550;2023-05-20T16:31:33;13.70;;;12.30;;
10088;SDS011;51898;49.864;8.550;2023-05-20T16:34:35;12.27;;;11.07;;
10088;SDS011;51898;49.864;8.550;2023-05-20T16:37:37;13.93;;;11.93;;
10088;SDS011;51898;49.864;8.550;2023-05-20T16:40:39;13.90;;;12.60;;
10088;SDS011;51898;49.864;8.550;2023-05-20T16:43:41;14.50;;;12.50;;
10088;SDS011;51898;49.864;8.550;2023-05-20T16:46:43;13.60;;;12.30;;
10088;SDS011;51898;49.864;8.550;2023-05-20T16:49:44;13.60;;;12.20;;
10088;SDS011;51898;49.864;8.550;2023-05-20T16:52:46;13.50;;;12.20;;
10088;SDS011;51898;49.864;8.550;2023-05-20T16:55:48;11.40;;;10.20;;
10088;SDS011;51898;49.864;8.550;2023-05-20T16:58:50;13.10;;;11.80;;
10088;SDS011;51898;49.864;8.550;2023-05-20T17:01:53;13.53;;;12.13;;
10088;SDS011;51898;49.864;8.550;2023-05-20T17:04:55;12.90;;;11.27;;
10088;SDS011;51898;49.864;8.550;2023-05-20T17:07:57;14.83;;;12.53;;
10088;SDS011;51898;49.864;8.550;2023-05-20T17:11:01;12.83;;;11.63;;
10088;SDS011;51898;49.864;8.550;2023-05-20T17:14:02;12.90;;;11.60;;
10088;SDS011;51898;49.864;8.550;2023-05-20T17:17:06;14.03;;;12.43;;
10088;SDS011;51898;49.864;8.550;2023-05-20T17:20:09;13.20;;;11.80;;
10088;SDS011;51898;49.864;8.550;2023-05-20T17:23:11;13.00;;;11.40;;
10088;SDS011;51898;49.864;8.550;2023-05-20T17:26:14;12.67;;;11.33;;
10088;SDS011;51898;49.864;8.550;2023-05-20T17:29:16;12.40;;;11.23;;
10088;SDS011;51898;49.864;8.550;2023-05-20T17:32:18;13.53;;;12.33;;
10088;SDS011;51898;49.864;8.550;2023-05-20T17:35:20;12.47;;;11.17;;
10088;SDS011;51898;49.864;8.550;2023-05-20T17:38:25;14.17;;;11.80;;
10088;SDS011;51898;49.864;8.550;2023-05-20T17:41:27;13.77;;;12.03;;
10088;SDS011;51898;49.864;8.550;2023-05-20T17:44:29;13.60;;;11.60;;
10088;SDS011;51898;49.864;8.550;2023-05-20T17:47:30;15.33;;;12.67;;
10088;SDS011;51898;49.864;8.550;2023-05-20T17:50:32;14.40;;;12.30;;
10088;SDS011;51898;49.864;8.550;2023-05-20T17:53:34;13.20;;;11.80;;
10088;SDS011;51898;49.864;8.550;2023-05-20T17:56:36;15.60;;;12.70;;
10088;SDS011;51898;49.864;8.550;2023-05-20T17:59:38;14.10;;;12.40;;
10088;SDS011;51898;49.864;8.550;2023-05-20T18:02:41;13.90;;;12.53;;
10088;SDS011;51898;49.864;8.550;2023-05-20T18:05:48;15.57;;;12.43;;
10088;SDS011;51898;49.864;8.550;2023-05-20T18:08:49;14.67;;;12.53;;